createdAt,value
2022-08-09T00:01:42.963Z,100529.78
2022-08-09T00:04:34.206Z,100526.22
2022-08-09T00:07:07.767Z,100517.56
2022-08-09T00:09:38.855Z,100505.31
2022-08-09T00:12:06.616Z,100497.53
2022-08-09T00:14:37.853Z,100497.84
2022-08-09T00:17:05.964Z,100481.97
2022-08-09T00:19:34.049Z,100481.41
2022-08-09T00:22:04.392Z,100469.41
2022-08-09T00:24:32.421Z,100463.06
2022-08-09T00:27:00.306Z,100457.72
2022-08-09T00:30:16.565Z,100451.78
2022-08-09T00:32:27.261Z,100451.91
2022-08-09T00:34:56.437Z,100434.34
2022-08-09T00:37:24.075Z,100444.44
2022-08-09T00:40:14.128Z,100444.44
2022-08-09T00:44:09.935Z,100453.25
2022-08-09T00:45:25.975Z,100457.91
2022-08-09T00:47:52.982Z,100450.16
2022-08-09T00:50:23.670Z,100444.84
2022-08-09T00:52:52.794Z,100435.25
2022-08-09T00:56:03.658Z,100432.25
2022-08-09T00:58:09.219Z,100422.97
2022-08-09T01:00:43.867Z,100417.59
2022-08-09T01:03:29.423Z,100429.84
2022-08-09T01:06:17.533Z,100439.66
2022-08-09T01:08:59.812Z,100444.44
2022-08-09T01:11:53.265Z,100462.88
2022-08-09T01:14:35.695Z,100463.19
2022-08-09T01:17:10.993Z,100452.97
2022-08-09T01:20:01.899Z,100458.66
2022-08-09T01:22:37.834Z,100447.41
2022-08-09T01:25:42.192Z,100440.66
2022-08-09T01:28:16.785Z,100437.47
2022-08-09T01:30:52.171Z,100449.25
2022-08-09T01:33:24.492Z,100451.91
2022-08-09T01:36:11.320Z,100462.69
2022-08-09T01:38:46.633Z,100463.28
2022-08-09T01:41:26.125Z,100463.28
2022-08-09T01:43:57.663Z,100467.66
2022-08-09T01:46:38.804Z,100471.13
2022-08-09T01:49:12.896Z,100472.53
2022-08-09T01:51:56.820Z,100458.25
2022-08-09T01:54:30.253Z,100472.34
2022-08-09T01:57:05.079Z,100470.50
2022-08-09T01:59:40.870Z,100479.94
2022-08-09T02:02:21.807Z,100480.91
2022-08-09T02:04:50.815Z,100485.22
2022-08-09T02:08:41.054Z,100486.47
2022-08-09T02:10:13.720Z,100490.59
2022-08-09T02:12:44.408Z,100482.38
2022-08-09T02:15:16.643Z,100479.19
2022-08-09T02:18:00.874Z,100481.56
2022-08-09T02:20:41.188Z,100485.13
2022-08-09T02:23:19.380Z,100492.72
2022-08-09T02:25:55.934Z,100501.66
2022-08-09T02:28:34.485Z,100495.91
2022-08-09T02:31:09.257Z,100499.19
2022-08-09T02:34:07.212Z,100503.31
2022-08-09T02:36:41.908Z,100507.88
2022-08-09T02:39:33.302Z,100499.75
2022-08-09T02:42:09.367Z,100507.16
2022-08-09T02:44:40.061Z,100511.25
2022-08-09T02:47:11.984Z,100515.34
2022-08-09T02:49:43.892Z,100516.09
2022-08-09T02:52:15.272Z,100518.63
2022-08-09T02:54:54.083Z,100521.56
2022-08-09T02:57:25.143Z,100524.16
2022-08-09T03:00:21.407Z,100522.38
2022-08-09T03:03:00.506Z,100527.31
2022-08-09T03:05:34.377Z,100526.56
2022-08-09T03:08:04.754Z,100514.59
2022-08-09T03:10:35.520Z,100523.63
2022-08-09T03:13:08.255Z,100522.06
2022-08-09T03:15:40.390Z,100511.88
2022-08-09T03:18:31.245Z,100514.78
2022-08-09T03:20:59.723Z,100505.44
2022-08-09T03:23:26.843Z,100513.97
2022-08-09T03:25:59.408Z,100507.66
2022-08-09T03:28:32.945Z,100516.25
2022-08-09T03:31:04.440Z,100522.19
2022-08-09T03:33:53.935Z,100516.75
2022-08-09T03:36:27.270Z,100515.16
2022-08-09T03:38:56.821Z,100510.06
2022-08-09T03:41:30.072Z,100503.47
2022-08-09T03:44:12.137Z,100510.56
2022-08-09T03:46:39.406Z,100512.56
2022-08-09T03:49:08.904Z,100526.38
2022-08-09T03:51:58.213Z,100521.72
2022-08-09T03:54:31.799Z,100522.22
2022-08-09T03:57:17.907Z,100522.06
2022-08-09T03:59:54.160Z,100523.97
2022-08-09T04:02:30.355Z,100524.38
2022-08-09T04:05:00.697Z,100530.44
2022-08-09T04:07:33.769Z,100528.66
2022-08-09T04:10:20.647Z,100534.66
2022-08-09T04:12:50.867Z,100528.38
2022-08-09T04:15:42.562Z,100533.09
2022-08-09T04:18:08.744Z,100537.34
2022-08-09T04:20:35.812Z,100531.84
2022-08-09T04:23:03.550Z,100521.81
2022-08-09T04:25:37.193Z,100532.91
2022-08-09T04:28:04.621Z,100523.09
2022-08-09T04:30:32.658Z,100521.47
2022-08-09T04:33:01.175Z,100537.19
2022-08-09T04:35:29.398Z,100532.44
2022-08-09T04:38:03.549Z,100531.25
2022-08-09T04:40:56.065Z,100524.91
2022-08-09T04:43:25.349Z,100524.81
2022-08-09T04:45:54.118Z,100529.00
2022-08-09T04:48:23.933Z,100532.75
2022-08-09T04:51:00.740Z,100514.97
2022-08-09T04:53:28.677Z,100510.13
2022-08-09T04:55:59.789Z,100511.81
2022-08-09T04:58:31.849Z,100511.66
2022-08-09T05:01:02.193Z,100502.34
2022-08-09T05:03:43.099Z,100501.38
2022-08-09T05:06:25.756Z,100495.69
2022-08-09T05:09:00.679Z,100493.47
2022-08-09T05:11:32.453Z,100490.81
2022-08-09T05:14:06.213Z,100484.47
2022-08-09T05:16:58.350Z,100497.59
2022-08-09T05:19:26.110Z,100487.94
2022-08-09T05:21:55.526Z,100497.13
2022-08-09T05:24:24.878Z,100500.00
2022-08-09T05:26:53.048Z,100504.09
2022-08-09T05:29:21.945Z,100499.38
2022-08-09T05:31:56.863Z,100495.91
2022-08-09T05:34:31.679Z,100495.13
2022-08-09T05:37:07.391Z,100495.97
2022-08-09T05:39:43.239Z,100499.88
2022-08-09T05:42:20.948Z,100499.69
2022-08-09T05:44:51.976Z,100503.59
2022-08-09T05:47:24.754Z,100498.06
2022-08-09T05:50:25.456Z,100499.94
2022-08-09T05:52:44.402Z,100504.44
2022-08-09T05:55:21.100Z,100483.88
2022-08-09T05:57:57.371Z,100494.28
2022-08-09T06:00:32.748Z,100489.91
2022-08-09T06:03:02.773Z,100502.69
2022-08-09T06:05:57.272Z,100493.41
2022-08-09T06:08:24.870Z,100495.94
2022-08-09T06:10:56.148Z,100488.66
2022-08-09T06:13:24.920Z,100502.13
2022-08-09T06:15:52.978Z,100497.03
2022-08-09T06:18:24.768Z,100490.19
2022-08-09T06:20:58.132Z,100494.03
2022-08-09T06:23:55.541Z,100478.78
2022-08-09T06:26:21.113Z,100475.81
2022-08-09T06:29:00.072Z,100473.00
2022-08-09T06:31:40.500Z,100489.75
2022-08-09T06:34:23.646Z,100489.81
2022-08-09T06:36:57.259Z,100493.75
2022-08-09T06:39:49.069Z,100491.50
2022-08-09T06:42:24.508Z,100493.81
2022-08-09T06:44:57.300Z,100500.22
2022-08-09T06:47:24.482Z,100502.50
2022-08-09T06:50:14.294Z,100496.75
2022-08-09T06:52:47.081Z,100494.94
2022-08-09T06:55:22.936Z,100489.59
2022-08-09T06:58:01.377Z,100479.34
2022-08-09T07:00:54.635Z,100481.59
2022-08-09T07:03:27.825Z,100492.06
2022-08-09T07:06:04.389Z,100489.03
2022-08-09T07:08:33.290Z,100497.22
2022-08-09T07:11:03.568Z,100499.06
2022-08-09T07:13:31.188Z,100509.75
2022-08-09T07:16:41.867Z,100506.63
2022-08-09T07:18:59.674Z,100507.41
2022-08-09T07:21:26.685Z,100511.75
2022-08-09T07:23:58.518Z,100504.94
2022-08-09T07:26:26.344Z,100503.06
2022-08-09T07:29:09.369Z,100511.41
2022-08-09T07:31:45.438Z,100511.75
2022-08-09T07:34:20.185Z,100509.84
2022-08-09T07:36:52.881Z,100505.56
2022-08-09T07:39:41.617Z,100505.63
2022-08-09T07:42:08.696Z,100502.19
2022-08-09T07:44:51.059Z,100503.22
2022-08-09T07:47:20.869Z,100495.28
2022-08-09T07:49:52.330Z,100479.31
2022-08-09T07:52:33.287Z,100479.56
2022-08-09T07:55:08.872Z,100467.41
2022-08-09T07:57:47.069Z,100493.44
2022-08-09T08:00:20.589Z,100511.66
2022-08-09T08:03:04.343Z,100507.66
2022-08-09T08:05:39.212Z,100505.66
2022-08-09T08:09:00.309Z,100497.69
2022-08-09T08:12:08.803Z,100514.22
2022-08-09T08:13:57.311Z,100507.03
2022-08-09T08:16:31.618Z,100504.06
2022-08-09T08:19:02.962Z,100509.19
2022-08-09T08:21:31.766Z,100507.66
2022-08-09T08:24:01.125Z,100518.19
2022-08-09T08:26:54.839Z,100517.06
2022-08-09T08:29:20.171Z,100519.41
2022-08-09T08:32:03.496Z,100522.44
2022-08-09T08:34:34.497Z,100523.81
2022-08-09T08:37:05.135Z,100519.00
2022-08-09T08:39:38.173Z,100531.06
2022-08-09T08:42:10.967Z,100519.78
2022-08-09T08:44:39.679Z,100530.19
2022-08-09T08:47:12.388Z,100515.84
2022-08-09T08:49:48.520Z,100528.31
2022-08-09T08:52:57.492Z,100524.50
2022-08-09T08:55:10.682Z,100521.38
2022-08-09T08:57:38.244Z,100524.81
2022-08-09T09:00:17.252Z,100520.69
2022-08-09T09:02:53.417Z,100519.44
2022-08-09T09:05:57.713Z,100517.28
2022-08-09T09:08:30.785Z,100515.34
2022-08-09T09:11:05.656Z,100519.50
2022-08-09T09:13:55.275Z,100509.28
2022-08-09T09:16:35.551Z,100514.59
2022-08-09T09:22:00.499Z,100511.84
2022-08-09T09:24:47.505Z,100505.41
2022-08-09T09:28:06.412Z,100499.75
2022-08-09T09:30:39.798Z,100493.44
2022-08-09T09:33:16.496Z,100494.94
2022-08-09T09:36:02.863Z,100501.03
2022-08-09T09:38:44.881Z,100501.19
2022-08-09T09:41:32.602Z,100501.41
2022-08-09T09:44:12.573Z,100495.50
2022-08-09T09:46:50.449Z,100491.13
2022-08-09T09:49:32.289Z,100493.88
2022-08-09T09:52:16.469Z,100506.53
2022-08-09T09:55:23.827Z,100487.91
2022-08-09T09:58:17.217Z,100502.00
2022-08-09T10:00:58.836Z,100498.50
2022-08-09T10:03:44.271Z,100500.13
2022-08-09T10:06:13.100Z,100484.59
2022-08-09T10:08:42.385Z,100489.72
2022-08-09T10:12:00.243Z,100481.31
2022-08-09T10:14:31.051Z,100486.66
2022-08-09T10:17:40.045Z,100483.31
2022-08-09T10:20:00.135Z,100482.06
2022-08-09T10:22:37.457Z,100472.78
2022-08-09T10:25:12.007Z,100477.06
2022-08-09T10:27:56.516Z,100472.56
2022-08-09T10:34:05.236Z,100469.13
2022-08-09T10:36:04.425Z,100473.66
2022-08-09T10:38:55.417Z,100477.44
2022-08-09T10:41:20.706Z,100484.44
2022-08-09T10:44:01.026Z,100485.88
2022-08-09T10:47:00.672Z,100482.31
2022-08-09T10:49:51.761Z,100483.13
2022-08-09T10:52:45.714Z,100483.56
2022-08-09T10:55:22.813Z,100486.84
2022-08-09T10:57:52.054Z,100481.41
2022-08-09T11:00:29.294Z,100472.25
2022-08-09T11:03:27.953Z,100487.16
2022-08-09T11:06:18.803Z,100489.88
2022-08-09T11:08:53.054Z,100485.47
2022-08-09T11:11:21.904Z,100488.50
2022-08-09T11:14:27.970Z,100485.47
2022-08-09T11:16:59.821Z,100484.28
2022-08-09T11:20:07.882Z,100487.16
2022-08-09T11:22:41.973Z,100481.72
2022-08-09T11:25:11.833Z,100478.34
2022-08-09T11:28:02.985Z,100478.22
2022-08-09T11:30:33.655Z,100487.66
2022-08-09T11:33:19.754Z,100484.69
2022-08-09T11:35:54.733Z,100482.06
2022-08-09T11:38:34.132Z,100479.22
2022-08-09T11:41:38.391Z,100481.94
2022-08-09T11:44:08.378Z,100479.00
2022-08-09T11:46:53.038Z,100490.09
2022-08-09T11:50:56.869Z,100487.34
2022-08-09T11:53:57.603Z,100486.47
2022-08-09T11:56:02.388Z,100487.69
2022-08-09T11:58:33.224Z,100485.84
2022-08-09T12:01:08.858Z,100479.56
2022-08-09T12:03:55.540Z,100475.72
2022-08-09T12:06:32.015Z,100475.59
2022-08-09T12:09:03.276Z,100468.84
2022-08-09T12:11:37.861Z,100471.75
2022-08-09T12:14:37.017Z,100471.34
2022-08-09T12:17:34.115Z,100470.59
2022-08-09T12:19:59.596Z,100473.91
2022-08-09T12:22:29.100Z,100474.25
2022-08-09T12:25:17.960Z,100473.47
2022-08-09T12:29:11.902Z,100465.75
2022-08-09T12:31:31.211Z,100478.50
2022-08-09T12:34:10.576Z,100482.38
2022-08-09T12:37:09.474Z,100477.59
2022-08-09T12:39:42.773Z,100472.75
2022-08-09T12:42:16.308Z,100478.69
2022-08-09T12:44:46.392Z,100477.66
2022-08-09T12:47:23.047Z,100476.69
2022-08-09T12:50:09.328Z,100475.53
2022-08-09T12:53:02.602Z,100478.59
2022-08-09T12:56:14.198Z,100480.19
2022-08-09T12:58:24.065Z,100473.31
2022-08-09T13:00:51.681Z,100478.34
2022-08-09T13:03:28.490Z,100475.81
2022-08-09T13:06:33.889Z,100475.97
2022-08-09T13:09:09.981Z,100467.50
2022-08-09T13:11:49.360Z,100475.91
2022-08-09T13:14:43.614Z,100468.78
2022-08-09T13:17:16.082Z,100468.31
2022-08-09T13:20:10.451Z,100470.84
2022-08-09T13:23:01.296Z,100475.06
2022-08-09T13:25:23.259Z,100459.66
2022-08-09T13:27:55.833Z,100462.34
2022-08-09T13:30:49.194Z,100466.09
2022-08-09T13:33:22.528Z,100458.72
2022-08-09T13:36:24.592Z,100468.75
2022-08-09T13:38:56.595Z,100459.88
2022-08-09T13:41:58.538Z,100463.19
2022-08-09T13:44:16.428Z,100457.56
2022-08-09T13:47:26.519Z,100464.66
2022-08-09T13:49:39.602Z,100457.03
2022-08-09T13:52:22.768Z,100463.19
2022-08-09T13:55:00.552Z,100462.19
2022-08-09T13:57:35.875Z,100461.44
2022-08-09T14:00:28.670Z,100468.59
2022-08-09T14:03:04.081Z,100465.44
2022-08-09T14:05:59.123Z,100466.88
2022-08-09T14:08:30.641Z,100459.38
2022-08-09T14:10:59.649Z,100465.31
2022-08-09T14:14:22.539Z,100470.56
2022-08-09T14:16:18.363Z,100469.53
2022-08-09T14:18:49.616Z,100463.09
2022-08-09T14:21:23.427Z,100461.38
2022-08-09T14:23:54.820Z,100469.91
2022-08-09T14:26:34.002Z,100467.38
2022-08-09T14:29:25.624Z,100465.44
2022-08-09T14:31:55.073Z,100469.59
2022-08-09T14:34:31.067Z,100462.00
2022-08-09T14:37:01.682Z,100463.13
2022-08-09T14:39:46.575Z,100461.63
2022-08-09T14:42:30.301Z,100474.09
2022-08-09T14:46:53.976Z,100472.38
2022-08-09T14:48:00.260Z,100474.66
2022-08-09T14:50:31.645Z,100474.31
2022-08-09T14:53:12.990Z,100477.22
2022-08-09T14:55:49.805Z,100471.28
2022-08-09T14:58:18.554Z,100474.38
2022-08-09T15:00:48.492Z,100484.56
2022-08-09T15:03:20.120Z,100481.38
2022-08-09T15:05:52.460Z,100486.38
2022-08-09T15:08:25.596Z,100482.75
2022-08-09T15:11:00.457Z,100473.13
2022-08-09T15:13:29.913Z,100477.88
2022-08-09T15:16:15.839Z,100464.31
2022-08-09T15:18:43.088Z,100476.41
2022-08-09T15:21:56.915Z,100476.03
2022-08-09T15:24:06.064Z,100484.06
2022-08-09T15:26:45.855Z,100482.69
2022-08-09T15:30:48.302Z,100478.97
2022-08-09T15:32:02.232Z,100477.03
2022-08-09T15:34:34.427Z,100465.66
2022-08-09T15:37:24.311Z,100479.50
2022-08-09T15:40:11.453Z,100478.13
2022-08-09T15:42:40.519Z,100471.81
2022-08-09T15:45:11.535Z,100473.66
2022-08-09T15:47:47.279Z,100472.03
2022-08-09T15:50:28.883Z,100467.34
2022-08-09T15:53:06.168Z,100466.28
2022-08-09T15:55:34.508Z,100476.38
2022-08-09T15:58:26.696Z,100476.84
2022-08-09T16:00:56.531Z,100472.56
2022-08-09T16:03:26.658Z,100471.13
2022-08-09T16:06:05.894Z,100476.31
2022-08-09T16:08:34.152Z,100477.72
2022-08-09T16:11:02.596Z,100478.34
2022-08-09T16:14:06.075Z,100480.19
2022-08-09T16:16:20.397Z,100483.09
2022-08-09T16:18:56.542Z,100478.19
2022-08-09T16:21:25.910Z,100482.34
2022-08-09T16:23:58.345Z,100478.63
2022-08-09T16:26:34.106Z,100483.78
2022-08-09T16:29:15.017Z,100488.69
2022-08-09T16:32:19.527Z,100492.38
2022-08-09T16:34:56.060Z,100487.28
2022-08-09T16:37:20.406Z,100498.59
2022-08-09T16:40:11.781Z,100501.69
2022-08-09T16:42:45.265Z,100493.47
2022-08-09T16:45:17.663Z,100503.72
2022-08-09T16:48:38.781Z,100496.75
2022-08-09T16:50:34.410Z,100505.81
2022-08-09T16:53:02.840Z,100495.13
2022-08-09T16:55:59.924Z,100501.91
2022-08-09T16:58:21.135Z,100504.38
2022-08-09T17:00:49.252Z,100498.44
2022-08-09T17:03:21.837Z,100501.75
2022-08-09T17:06:07.037Z,100503.38
2022-08-09T17:09:01.576Z,100512.00
2022-08-09T17:11:37.683Z,100516.31
2022-08-09T17:14:26.080Z,100510.75
2022-08-09T17:17:01.079Z,100516.69
2022-08-09T17:20:04.932Z,100510.13
2022-08-09T17:22:28.555Z,100519.34
2022-08-09T17:25:10.031Z,100509.50
2022-08-09T17:27:49.573Z,100507.63
2022-08-09T17:30:26.486Z,100510.69
2022-08-09T17:33:00.607Z,100512.09
2022-08-09T17:35:33.468Z,100525.41
2022-08-09T17:38:10.213Z,100523.53
2022-08-09T17:40:47.830Z,100523.94
2022-08-09T17:43:33.539Z,100526.19
2022-08-09T17:46:07.102Z,100527.81
2022-08-09T17:48:38.887Z,100525.34
2022-08-09T17:51:18.412Z,100525.94
2022-08-09T17:53:54.694Z,100508.75
2022-08-09T17:56:35.209Z,100519.59
2022-08-09T17:59:09.625Z,100514.66
2022-08-09T18:01:58.034Z,100518.31
2022-08-09T18:04:27.365Z,100513.16
2022-08-09T18:06:55.775Z,100509.22
2022-08-09T18:09:41.002Z,100518.44
2022-08-09T18:12:17.080Z,100505.47
2022-08-09T18:14:53.692Z,100516.72
2022-08-09T18:18:02.509Z,100521.41
2022-08-09T18:20:55.491Z,100513.19
2022-08-09T18:23:05.068Z,100508.03
2022-08-09T18:25:50.736Z,100514.38
2022-08-09T18:30:41.354Z,100512.28
2022-08-09T18:31:09.096Z,100524.91
2022-08-09T18:33:36.380Z,100520.41
2022-08-09T18:36:04.337Z,100524.09
2022-08-09T18:38:31.487Z,100521.19
2022-08-09T18:40:58.648Z,100519.13
2022-08-09T18:43:25.735Z,100526.66
2022-08-09T18:46:47.213Z,100520.66
2022-08-09T18:48:42.557Z,100527.44
2022-08-09T18:51:10.164Z,100528.44
2022-08-09T18:53:55.953Z,100525.53
2022-08-09T18:56:27.955Z,100518.34
2022-08-09T18:58:56.944Z,100522.63
2022-08-09T19:01:24.864Z,100519.91
2022-08-09T19:04:00.885Z,100517.44
2022-08-09T19:06:33.310Z,100523.75
2022-08-09T19:09:02.602Z,100533.94
2022-08-09T19:11:37.442Z,100514.28
2022-08-09T19:14:06.950Z,100529.03
2022-08-09T19:16:36.453Z,100522.25
2022-08-09T19:19:25.413Z,100531.41
2022-08-09T19:22:05.039Z,100529.34
2022-08-09T19:24:38.367Z,100530.91
2022-08-09T19:27:08.011Z,100528.63
2022-08-09T19:29:59.815Z,100527.34
2022-08-09T19:32:26.603Z,100508.66
2022-08-09T19:34:57.626Z,100523.84
2022-08-09T19:37:25.165Z,100527.50
2022-08-09T19:40:03.810Z,100521.75
2022-08-09T19:42:32.636Z,100514.97
2022-08-09T19:44:59.796Z,100514.34
2022-08-09T19:47:26.854Z,100519.84
2022-08-09T19:50:08.109Z,100515.91
2022-08-09T19:52:49.312Z,100516.09
2022-08-09T19:55:30.430Z,100520.03
2022-08-09T19:57:58.096Z,100516.69
2022-08-09T20:00:25.185Z,100515.66
2022-08-09T20:04:09.846Z,100513.38
2022-08-09T20:05:46.371Z,100507.63
2022-08-09T20:08:24.748Z,100510.66
2022-08-09T20:11:04.234Z,100510.84
2022-08-09T20:13:36.955Z,100509.00
2022-08-09T20:16:34.152Z,100504.25
2022-08-09T20:19:42.419Z,100505.28
2022-08-09T20:21:56.371Z,100512.41
2022-08-09T20:24:29.643Z,100512.78
2022-08-09T20:27:08.367Z,100515.81
2022-08-09T20:29:38.338Z,100521.50
2022-08-09T20:32:28.813Z,100524.16
2022-08-09T20:34:55.304Z,100520.41
2022-08-09T20:37:22.835Z,100505.38
2022-08-09T20:40:16.793Z,100511.97
2022-08-09T20:42:37.846Z,100514.16
2022-08-09T20:46:00.358Z,100520.66
2022-08-09T20:47:55.013Z,100519.19
2022-08-09T20:50:47.991Z,100523.88
2022-08-09T20:53:35.020Z,100525.72
2022-08-09T20:56:02.664Z,100527.88
2022-08-09T20:58:32.283Z,100532.38
2022-08-09T21:01:33.054Z,100527.25
2022-08-09T21:04:14.076Z,100529.47
2022-08-09T21:06:41.513Z,100529.81
2022-08-09T21:09:14.240Z,100531.44
2022-08-09T21:14:31.052Z,100532.22
2022-08-09T21:17:00.191Z,100524.63
2022-08-09T21:20:17.183Z,100534.19
2022-08-09T21:22:35.957Z,100532.94
2022-08-09T21:25:21.195Z,100535.78
2022-08-09T21:27:52.015Z,100530.84
2022-08-09T21:30:27.920Z,100534.84
2022-08-09T21:32:54.988Z,100533.53
2022-08-09T21:35:24.240Z,100533.75
2022-08-09T21:37:59.934Z,100535.94
2022-08-09T21:40:30.307Z,100528.34
2022-08-09T21:42:59.823Z,100530.16
2022-08-09T21:45:28.272Z,100526.88
2022-08-09T21:47:55.584Z,100530.72
2022-08-09T21:50:36.112Z,100530.91
2022-08-09T21:53:15.660Z,100531.88
2022-08-09T21:55:51.209Z,100523.66
2022-08-09T21:58:18.243Z,100508.84
2022-08-09T22:00:48.749Z,100526.50
2022-08-09T22:03:25.772Z,100514.09
2022-08-09T22:05:54.251Z,100512.78
2022-08-09T22:08:24.606Z,100512.63
2022-08-09T22:11:50.228Z,100514.44
2022-08-09T22:13:42.313Z,100510.50
2022-08-09T22:16:11.627Z,100506.38
2022-08-09T22:18:53.594Z,100511.84
2022-08-09T22:21:25.327Z,100511.22
2022-08-09T22:24:17.306Z,100513.25
2022-08-09T22:26:51.553Z,100497.75
2022-08-09T22:29:19.635Z,100515.41
2022-08-09T22:31:57.443Z,100511.31
2022-08-09T22:34:28.198Z,100520.25
2022-08-09T22:36:57.072Z,100510.50
2022-08-09T22:39:58.004Z,100508.97
2022-08-09T22:42:21.276Z,100514.00
2022-08-09T22:45:00.405Z,100516.66
2022-08-09T22:48:30.150Z,100514.34
2022-08-09T22:50:26.574Z,100520.00
2022-08-09T22:52:57.898Z,100517.53
2022-08-09T22:55:39.756Z,100513.22
2022-08-09T22:58:30.906Z,100513.59
2022-08-09T23:01:02.841Z,100509.31
2022-08-09T23:04:03.993Z,100507.19
2022-08-09T23:06:30.068Z,100507.38
2022-08-09T23:09:06.982Z,100515.50
2022-08-09T23:11:34.181Z,100516.84
2022-08-09T23:14:03.248Z,100508.63
2022-08-09T23:16:31.448Z,100513.91
2022-08-09T23:18:58.459Z,100514.72
2022-08-09T23:21:28.818Z,100503.66
2022-08-09T23:24:05.347Z,100506.31
2022-08-09T23:26:37.152Z,100506.66
2022-08-09T23:29:08.487Z,100503.22
2022-08-09T23:31:35.653Z,100509.66
2022-08-09T23:34:03.918Z,100504.72
2022-08-09T23:36:32.113Z,100512.03
2022-08-09T23:38:59.485Z,100516.00
2022-08-09T23:41:28.398Z,100502.84
2022-08-09T23:44:01.589Z,100522.13
2022-08-09T23:46:29.875Z,100527.75
2022-08-09T23:48:58.245Z,100529.41
2022-08-09T23:51:26.262Z,100531.88
2022-08-09T23:53:55.388Z,100534.69
2022-08-09T23:56:53.520Z,100538.50
2022-08-09T23:59:17.137Z,100532.13
